Time;durP1;ratioP1;P1;durP2;ratioP2;P2;SDS_P1;SDS_P2;PMS_P1;PMS_P2;Temp;Humidity;BMP_temperature;BMP_pressure;BME280_temperature;BME280_humidity;BME280_pressure;Samples;Min_cycle;Max_cycle;Signal;HPM_P1;HPM_P2
2023/05/21 00:01:24;;;;;;;6.47;3.05;;;;;;;16.19;80.22;101841.47;4957033;28;20063;-71
2023/05/21 00:03:51;;;;;;;4.90;3.20;;;;;;;16.23;79.90;101846.44;4949228;28;20074;-71
2023/05/21 00:06:19;;;;;;;4.72;2.88;;;;;;;16.21;79.99;101836.03;4949827;28;20142;-71
2023/05/21 00:08:46;;;;;;;;;;;;;;;16.28;79.67;101837.03;4961628;28;20051;-71
2023/05/21 00:11:12;;;;;;;4.13;2.58;;;;;;;16.33;77.98;101841.88;4953159;28;20424;-72
2023/05/21 00:13:39;;;;;;;8.82;3.28;;;;;;;16.30;78.82;101834.22;4938221;28;20062;-71
2023/05/21 00:16:06;;;;;;;4.13;2.50;;;;;;;16.37;77.62;101830.78;4955861;28;20051;-71
2023/05/21 00:18:33;;;;;;;7.90;3.13;;;;;;;16.39;76.90;101826.16;4955956;28;20090;-71
2023/05/21 00:21:00;;;;;;;3.80;2.50;;;;;;;16.43;77.70;101828.50;4961115;28;20078;-72
2023/05/21 00:23:27;;;;;;;4.65;2.80;;;;;;;16.37;79.52;101822.84;4938724;28;20062;-71
2023/05/21 00:25:53;;;;;;;4.45;2.78;;;;;;;16.40;78.18;101821.69;4941983;28;20432;-71
2023/05/21 00:28:20;;;;;;;4.80;3.13;;;;;;;16.41;78.74;101815.41;4964436;28;20607;-71
2023/05/21 00:30:46;;;;;;;4.65;2.75;;;;;;;16.42;78.75;101817.03;4960819;28;20487;-72
2023/05/21 00:33:13;;;;;;;7.75;3.20;;;;;;;16.45;79.49;101807.97;4944929;28;20444;-72
2023/05/21 00:35:40;;;;;;;5.47;3.40;;;;;;;16.45;78.58;101808.78;4944010;28;20097;-72
2023/05/21 00:38:08;;;;;;;4.57;3.10;;;;;;;16.42;78.57;101806.47;4955299;28;20058;-71
2023/05/21 00:40:35;;;;;;;4.93;3.22;;;;;;;16.40;79.29;101803.16;4958233;28;20050;-72
2023/05/21 00:43:02;;;;;;;4.03;2.97;;;;;;;16.40;78.59;101801.31;4955248;28;20055;-72
2023/05/21 00:45:28;;;;;;;3.67;2.92;;;;;;;16.44;79.43;101811.59;4947940;28;20080;-71
2023/05/21 00:47:55;;;;;;;4.95;3.15;;;;;;;16.38;79.28;101803.28;4959217;28;20585;-71
2023/05/21 00:50:22;;;;;;;7.30;3.50;;;;;;;16.39;79.94;101796.19;4959421;28;20043;-71
2023/05/21 00:52:49;;;;;;;7.00;4.10;;;;;;;16.36;81.12;101792.03;4952030;28;20130;-71
2023/05/21 00:55:16;;;;;;;4.68;3.13;;;;;;;16.34;80.93;101794.03;4974579;28;20086;-71
2023/05/21 00:57:42;;;;;;;4.32;3.00;;;;;;;16.36;80.32;101789.38;4962155;28;20081;-72
2023/05/21 01:00:09;;;;;;;4.68;3.17;;;;;;;16.33;80.11;101784.44;4960315;28;20094;-71
2023/05/21 01:02:37;;;;;;;6.45;3.33;;;;;;;16.38;80.43;101792.72;4951047;28;20051;-71
2023/05/21 01:05:05;;;;;;;6.90;4.03;;;;;;;16.33;80.93;101792.38;4952981;28;20528;-72
2023/05/21 01:07:33;;;;;;;7.03;3.50;;;;;;;16.30;81.82;101794.50;4945254;28;20150;-71
2023/05/21 01:10:08;;;;;;;7.47;3.38;;;;;;;16.27;81.78;101785.09;4947826;28;20125;-72
2023/05/21 01:12:36;;;;;;;7.82;3.30;;;;;;;16.30;81.43;101789.22;4946003;28;20106;-72
2023/05/21 01:15:04;;;;;;;4.85;3.17;;;;;;;16.27;81.50;101789.53;4958946;28;20154;-71
2023/05/21 01:17:32;;;;;;;5.20;3.33;;;;;;;16.24;81.56;101785.38;4959401;28;20479;-71
2023/05/21 01:20:00;;;;;;;6.10;3.15;;;;;;;16.29;82.06;101795.50;4976462;28;20296;-71
2023/05/21 01:22:31;;;;;;;6.88;3.60;;;;;;;16.27;83.17;101786.88;4962332;28;20423;-72
2023/05/21 01:24:57;;;;;;;5.28;3.20;;;;;;;16.21;83.98;101781.25;4943650;28;20050;-72
2023/05/21 01:27:24;;;;;;;6.45;3.40;;;;;;;16.23;83.04;101777.59;4954121;28;20125;-72
2023/05/21 01:29:51;;;;;;;4.90;3.47;;;;;;;16.24;83.25;101788.03;4978804;28;20054;-72
2023/05/21 01:33:05;;;;;;;4.70;3.30;;;;;;;16.24;84.12;101781.91;4976065;28;20051;-72
2023/05/21 01:35:34;;;;;;;5.53;3.20;;;;;;;16.22;84.60;101779.44;4862810;29;20541;-72
2023/05/21 01:38:21;;;;;;;5.53;3.22;;;;;;;16.20;84.52;101778.75;4937940;28;20060;-72
2023/05/21 01:40:54;;;;;;;5.20;3.42;;;;;;;16.20;84.17;101771.63;4960613;28;20062;-72
2023/05/21 01:43:22;;;;;;;5.95;3.45;;;;;;;16.20;82.74;101765.53;4949136;28;20057;-72
2023/05/21 01:45:53;;;;;;;7.55;3.80;;;;;;;16.24;83.99;101769.50;4938268;28;20090;-72
2023/05/21 01:48:22;;;;;;;4.72;3.25;;;;;;;16.21;83.26;101759.25;4964863;28;20110;-72
2023/05/21 01:50:50;;;;;;;7.82;3.55;;;;;;;16.25;84.23;101773.81;4961058;28;20051;-72
2023/05/21 01:53:16;;;;;;;4.80;3.40;;;;;;;16.21;85.01;101765.38;4953745;28;20700;-72
2023/05/21 01:55:43;;;;;;;5.57;4.05;;;;;;;16.17;84.76;101764.03;4956917;28;20054;-72
2023/05/21 01:58:10;;;;;;;4.90;3.63;;;;;;;16.11;85.81;101756.75;4947914;28;20058;-72
2023/05/21 02:00:38;;;;;;;5.75;3.45;;;;;;;16.15;84.21;101766.00;4960420;28;20058;-72
2023/05/21 02:03:05;;;;;;;;;;;;;;;16.16;85.06;101762.38;4931513;28;20207;-72
2023/05/21 02:05:31;;;;;;;6.32;3.75;;;;;;;16.14;84.90;101763.53;4948416;28;19926;-72
2023/05/21 02:07:58;;;;;;;5.18;3.55;;;;;;;16.08;84.82;101764.16;4954661;28;20055;-72
2023/05/21 02:10:25;;;;;;;5.88;3.78;;;;;;;16.07;84.13;101762.50;4962843;28;20051;-71
2023/05/21 02:12:52;;;;;;;9.07;4.00;;;;;;;16.06;85.84;101764.31;4965280;28;20082;-72
2023/05/21 02:15:18;;;;;;;5.15;3.70;;;;;;;16.00;86.72;101762.31;4954555;28;20165;-72
2023/05/21 02:17:45;;;;;;;4.60;3.50;;;;;;;15.95;86.37;101757.47;4947101;28;20476;-71
2023/05/21 02:20:13;;;;;;;6.07;4.05;;;;;;;16.01;87.06;101759.50;4954021;28;20059;-72
2023/05/21 02:22:42;;;;;;;5.97;3.67;;;;;;;16.04;85.97;101763.66;4946431;28;20058;-72
2023/05/21 02:25:09;;;;;;;7.05;3.85;;;;;;;16.05;86.01;101754.69;4943729;28;20702;-72
2023/05/21 02:27:37;;;;;;;6.60;4.20;;;;;;;16.00;88.44;101752.53;4963811;28;20110;-72
2023/05/21 02:30:07;;;;;;;4.70;3.30;;;;;;;16.01;85.76;101748.94;4942414;28;20839;-72
2023/05/21 02:32:34;;;;;;;5.78;3.78;;;;;;;16.00;87.68;101754.38;4972963;28;20101;-72
2023/05/21 02:35:02;;;;;;;6.03;3.80;;;;;;;15.99;88.58;101755.34;4966196;28;20054;-72
2023/05/21 02:37:33;;;;;;;7.88;4.25;;;;;;;16.00;86.86;101757.03;4959239;28;20210;-72
2023/05/21 02:40:02;;;;;;;7.60;3.83;;;;;;;15.99;88.22;101755.34;4965638;28;20065;-72
2023/05/21 02:42:29;;;;;;;6.22;4.07;;;;;;;15.99;87.76;101750.91;4936329;29;20059;-72
2023/05/21 02:44:56;;;;;;;5.45;3.72;;;;;;;15.98;88.04;101762.47;4958153;28;20470;-72
2023/05/21 02:47:24;;;;;;;6.25;4.10;;;;;;;15.96;88.77;101761.78;4964936;28;20058;-71
2023/05/21 02:49:51;;;;;;;7.05;4.03;;;;;;;15.90;90.04;101756.31;4959127;28;20050;-72
2023/05/21 02:52:21;;;;;;;6.22;4.28;;;;;;;15.92;89.41;101754.34;4947839;28;20157;-72
2023/05/21 02:54:48;;;;;;;6.63;3.90;;;;;;;15.90;89.49;101751.84;4948168;28;20566;-72
2023/05/21 02:57:14;;;;;;;10.88;4.75;;;;;;;15.86;91.11;101747.88;4956187;28;20086;-72
2023/05/21 02:59:41;;;;;;;6.20;4.05;;;;;;;15.88;91.26;101753.00;4953468;28;20137;-72
2023/05/21 03:02:07;;;;;;;6.95;4.30;;;;;;;15.86;89.11;101744.38;4961976;28;20394;-72
2023/05/21 03:04:37;;;;;;;6.90;4.47;;;;;;;15.85;90.73;101745.38;4947137;28;20051;-72
2023/05/21 03:07:04;;;;;;;8.60;4.68;;;;;;;15.87;89.95;101751.34;4939172;28;20050;-72
2023/05/21 03:09:31;;;;;;;8.50;4.60;;;;;;;15.84;90.71;101752.50;4956515;28;20054;-72
2023/05/21 03:11:58;;;;;;;6.10;4.07;;;;;;;15.82;91.81;101749.16;4952544;28;20058;-72
2023/05/21 03:14:24;;;;;;;5.35;3.60;;;;;;;15.85;88.28;101751.47;4961453;28;20494;-72
2023/05/21 03:16:51;;;;;;;6.25;3.80;;;;;;;15.84;90.46;101743.69;4942211;28;20134;-71
2023/05/21 03:19:17;;;;;;;6.90;4.25;;;;;;;15.83;93.39;101748.16;4961036;28;20050;-71
2023/05/21 03:21:44;;;;;;;6.60;4.07;;;;;;;15.79;89.45;101736.25;4949203;28;20450;-72
2023/05/21 03:24:12;;;;;;;6.55;4.55;;;;;;;15.81;92.46;101742.22;4958705;28;20117;-72
2023/05/21 03:26:39;;;;;;;6.75;4.05;;;;;;;15.82;91.48;101749.16;4949971;28;20762;-72
2023/05/21 03:29:05;;;;;;;6.03;4.22;;;;;;;15.83;91.71;101748.16;4949491;28;20084;-71
2023/05/21 03:31:32;;;;;;;6.90;4.40;;;;;;;15.77;93.25;101735.59;4944440;28;20499;-71
2023/05/21 03:33:58;;;;;;;7.13;4.20;;;;;;;15.71;94.42;101738.84;4946464;28;20051;-72
2023/05/21 03:36:25;;;;;;;7.07;4.32;;;;;;;15.73;92.49;101732.41;4954195;28;20062;-71
2023/05/21 03:38:51;;;;;;;8.43;4.45;;;;;;;15.70;94.23;101732.72;4941790;28;21032;-72
2023/05/21 03:41:18;;;;;;;5.68;4.35;;;;;;;15.70;94.10;101731.88;4934012;28;20054;-72
2023/05/21 03:43:44;;;;;;;6.72;4.75;;;;;;;15.66;94.68;101727.88;4942707;28;20171;-71
2023/05/21 03:46:11;;;;;;;6.32;4.30;;;;;;;15.68;93.62;101726.75;4948423;28;20058;-72
2023/05/21 03:48:38;;;;;;;7.60;4.40;;;;;;;15.66;95.03;101733.16;4953836;28;20055;-72
2023/05/21 03:51:04;;;;;;;6.90;4.20;;;;;;;15.63;93.42;101726.38;4964366;28;20058;-73
2023/05/21 03:53:32;;;;;;;7.10;4.32;;;;;;;15.63;94.29;101732.50;4951274;28;20140;-72
2023/05/21 03:55:59;;;;;;;;;;;;;;;15.67;93.31;101730.38;4940729;28;20059;-72
2023/05/21 03:58:26;;;;;;;8.68;4.88;;;;;;;15.63;94.76;101729.03;4952429;28;20350;-71
2023/05/21 04:00:53;;;;;;;6.05;4.28;;;;;;;15.66;93.54;101731.38;4956895;28;20050;-71
2023/05/21 04:03:19;;;;;;;6.32;3.58;;;;;;;15.66;92.53;101731.38;4956770;28;20047;-72
2023/05/21 04:05:47;;;;;;;8.15;4.55;;;;;;;15.66;95.14;101739.31;4967539;28;20679;-72
2023/05/21 04:08:14;;;;;;;7.30;4.80;;;;;;;15.60;96.03;101737.28;4972088;28;20058;-72
2023/05/21 04:10:41;;;;;;;5.38;4.10;;;;;;;15.60;94.48;101738.13;4939937;28;20058;-72
2023/05/21 04:13:07;;;;;;;8.32;4.70;;;;;;;15.60;97.36;101737.28;4969513;28;20047;-72
2023/05/21 04:15:34;;;;;;;6.82;4.18;;;;;;;15.60;95.11;101734.63;4950469;28;20130;-71
2023/05/21 04:18:01;;;;;;;6.35;4.10;;;;;;;15.61;94.99;101744.22;4960503;28;20086;-71
2023/05/21 04:20:27;;;;;;;5.53;4.18;;;;;;;15.58;96.53;101749.81;4943776;28;20479;-72
2023/05/21 04:22:54;;;;;;;9.20;4.70;;;;;;;15.54;97.65;101749.34;4965389;28;20467;-71
2023/05/21 04:25:22;;;;;;;6.38;4.30;;;;;;;15.62;93.41;101748.53;4952309;28;20046;-71
2023/05/21 04:27:48;;;;;;;7.90;5.13;;;;;;;15.58;96.94;101750.69;4962359;28;20090;-71
2023/05/21 04:30:15;;;;;;;7.95;4.82;;;;;;;15.61;97.93;101750.34;4961298;28;20126;-71
2023/05/21 04:32:44;;;;;;;7.82;4.38;;;;;;;15.62;96.54;101753.81;4968727;28;20043;-72
2023/05/21 04:35:13;;;;;;;6.00;4.32;;;;;;;15.60;96.54;101743.41;4987409;28;20066;-71
2023/05/21 04:37:40;;;;;;;5.38;4.05;;;;;;;15.66;96.19;101743.75;4941857;28;20062;-71
2023/05/21 04:40:08;;;;;;;7.88;4.47;;;;;;;15.71;98.86;101752.88;4961452;28;20051;-71
2023/05/21 04:42:35;;;;;;;5.97;4.53;;;;;;;15.71;98.12;101749.41;4952784;28;20125;-71
2023/05/21 04:45:02;;;;;;;7.40;5.00;;;;;;;15.72;98.12;101743.13;4958263;28;20141;-71
2023/05/21 04:47:29;;;;;;;8.02;5.85;;;;;;;15.66;100.00;101749.03;4949429;28;20451;-71
2023/05/21 04:49:55;;;;;;;6.40;4.47;;;;;;;15.68;97.51;101749.72;4954578;28;20138;-71
2023/05/21 04:52:23;;;;;;;7.90;4.90;;;;;;;15.70;97.96;101753.88;4957475;28;20550;-71
2023/05/21 04:54:50;;;;;;;6.78;4.18;;;;;;;15.75;97.05;101750.78;4963592;28;20061;-73
2023/05/21 04:57:17;;;;;;;9.38;4.97;;;;;;;15.69;99.13;101744.28;4961903;28;20061;-71
2023/05/21 04:59:43;;;;;;;7.18;4.85;;;;;;;15.69;100.00;101749.56;4970642;28;20480;-72
2023/05/21 05:02:10;;;;;;;8.43;4.97;;;;;;;15.62;100.00;101741.44;4943691;28;20058;-71
2023/05/21 05:04:37;;;;;;;6.05;4.28;;;;;;;15.74;96.95;101747.31;4959259;28;20053;-72
2023/05/21 05:07:03;;;;;;;7.57;4.75;;;;;;;15.73;99.68;101744.81;4958531;28;20082;-72
2023/05/21 05:09:30;;;;;;;7.68;4.82;;;;;;;15.75;100.00;101746.31;4949698;28;20051;-72
2023/05/21 05:11:57;;;;;;;6.28;4.80;;;;;;;15.74;100.00;101743.81;4960358;28;20100;-72
2023/05/21 05:14:23;;;;;;;6.78;4.78;;;;;;;15.73;100.00;101750.13;4938980;28;20055;-71
2023/05/21 05:16:50;;;;;;;7.53;5.45;;;;;;;15.78;100.00;101753.94;4969849;28;20062;-71
2023/05/21 05:19:16;;;;;;;9.77;5.63;;;;;;;15.75;100.00;101746.31;4962929;28;20058;-71
2023/05/21 05:21:43;;;;;;;7.88;5.07;;;;;;;15.79;99.58;101741.53;4965712;28;20102;-72
2023/05/21 05:24:10;;;;;;;7.35;5.22;;;;;;;15.80;100.00;101735.28;4974310;28;20054;-71
2023/05/21 05:26:36;;;;;;;6.45;4.45;;;;;;;15.86;100.00;101739.06;4979896;28;20054;-71
2023/05/21 05:29:03;;;;;;;9.38;4.72;;;;;;;15.85;98.61;101738.25;4960647;28;20054;-72
2023/05/21 05:31:29;;;;;;;6.90;5.40;;;;;;;15.88;100.00;101737.13;4935444;28;20502;-71
2023/05/21 05:33:57;;;;;;;7.68;4.70;;;;;;;15.87;100.00;101740.75;4971810;28;20054;-73
2023/05/21 05:36:23;;;;;;;7.75;5.28;;;;;;;15.89;100.00;101744.06;4963028;28;20106;-73
2023/05/21 05:38:50;;;;;;;6.70;4.88;;;;;;;15.88;100.00;101737.94;4965688;28;20063;-73
2023/05/21 05:41:17;;;;;;;8.90;5.30;;;;;;;15.95;100.00;101746.88;4942371;28;20571;-72
2023/05/21 05:43:44;;;;;;;8.98;5.68;;;;;;;15.99;100.00;101747.41;4956118;28;20055;-72
2023/05/21 05:46:11;;;;;;;8.02;5.38;;;;;;;16.04;100.00;101746.94;4947297;28;20138;-73
2023/05/21 05:48:38;;;;;;;7.53;5.65;;;;;;;16.09;100.00;101739.34;4963129;28;20504;-72
2023/05/21 05:51:05;;;;;;;10.25;5.68;;;;;;;16.07;100.00;101733.38;4962850;28;20069;-73
2023/05/21 05:53:32;;;;;;;7.45;4.82;;;;;;;16.10;100.00;101730.44;4941290;28;20066;-72
2023/05/21 05:55:58;;;;;;;10.38;5.60;;;;;;;16.09;100.00;101731.41;4962067;28;20427;-73
2023/05/21 05:58:25;;;;;;;10.88;5.10;;;;;;;16.18;98.25;101733.91;4954135;28;20051;-73
2023/05/21 06:00:52;;;;;;;6.90;5.25;;;;;;;16.27;99.62;101729.50;4948788;28;20047;-73
2023/05/21 06:03:19;;;;;;;7.05;5.28;;;;;;;16.31;99.43;101736.13;4948540;28;20102;-73
2023/05/21 06:05:46;;;;;;;9.52;5.60;;;;;;;16.27;100.00;101739.22;4973392;28;20486;-73
2023/05/21 06:08:12;;;;;;;7.80;5.47;;;;;;;16.27;100.00;101742.72;4958222;28;20051;-73
2023/05/21 06:10:39;;;;;;;8.77;5.50;;;;;;;16.35;100.00;101736.63;4947128;28;20389;-73
2023/05/21 06:13:06;;;;;;;6.32;4.32;;;;;;;16.40;100.00;101731.66;4952090;28;20046;-73
2023/05/21 06:15:33;;;;;;;6.97;5.03;;;;;;;16.49;99.38;101738.63;4940433;28;20059;-72
2023/05/21 06:18:00;;;;;;;8.10;5.85;;;;;;;16.51;100.00;101738.47;4948824;28;20113;-73
2023/05/21 06:20:28;;;;;;;8.23;4.72;;;;;;;16.57;98.48;101736.00;4957097;28;20139;-72
2023/05/21 06:22:55;;;;;;;10.13;5.25;;;;;;;16.70;99.64;101734.66;4930787;28;20050;-73
2023/05/21 06:25:22;;;;;;;5.90;4.75;;;;;;;16.77;97.29;101741.78;4958358;28;20047;-73
2023/05/21 06:27:48;;;;;;;8.25;5.13;;;;;;;16.91;96.27;101739.50;4955106;28;20046;-73
2023/05/21 06:30:15;;;;;;;9.85;5.30;;;;;;;16.97;96.67;101741.50;4949791;28;20050;-73
2023/05/21 06:32:42;;;;;;;8.80;6.32;;;;;;;17.05;96.51;101743.31;4955478;28;20133;-74
2023/05/21 06:35:08;;;;;;;7.38;4.90;;;;;;;17.15;95.37;101738.66;4946420;28;20149;-73
2023/05/21 06:37:35;;;;;;;8.30;5.07;;;;;;;17.26;91.96;101745.47;4942188;28;20062;-72
2023/05/21 06:40:02;;;;;;;9.90;5.78;;;;;;;17.36;92.35;101744.28;4948228;28;20121;-73
2023/05/21 06:42:29;;;;;;;9.70;5.55;;;;;;;17.42;92.92;101739.31;4956935;28;20074;-73
2023/05/21 06:44:56;;;;;;;10.07;5.35;;;;;;;17.51;92.06;101743.59;4942517;28;20063;-72
2023/05/21 06:47:22;;;;;;;9.32;5.30;;;;;;;17.61;90.65;101746.06;4979329;28;20109;-73
2023/05/21 06:49:49;;;;;;;9.80;5.25;;;;;;;17.73;90.09;101736.72;4951531;28;20079;-73
2023/05/21 06:52:15;;;;;;;8.80;5.70;;;;;;;17.86;91.09;101739.69;4959517;28;20055;-73
2023/05/21 06:54:42;;;;;;;9.15;5.20;;;;;;;17.93;88.97;101726.56;4957964;28;20126;-73
2023/05/21 06:57:09;;;;;;;7.82;5.90;;;;;;;18.01;88.27;101731.00;4937815;29;20069;-73
2023/05/21 06:59:35;;;;;;;10.98;6.40;;;;;;;18.01;89.71;101726.50;4959875;28;20054;-72
2023/05/21 07:02:02;;;;;;;11.38;6.40;;;;;;;18.06;88.39;101731.31;4974954;28;20065;-72
2023/05/21 07:04:30;;;;;;;8.25;6.00;;;;;;;18.14;88.93;101731.28;4962302;28;20050;-72
2023/05/21 07:06:56;;;;;;;11.02;5.93;;;;;;;18.22;89.49;101720.59;4964229;28;20067;-72
2023/05/21 07:09:23;;;;;;;10.18;5.20;;;;;;;18.29;87.04;101723.41;4939196;28;20079;-73
2023/05/21 07:11:51;;;;;;;14.05;5.82;;;;;;;18.31;86.77;101714.25;4963956;28;20058;-72
2023/05/21 07:14:18;;;;;;;37.08;7.05;;;;;;;18.37;86.18;101716.19;4945081;28;20182;-72
2023/05/21 07:16:45;;;;;;;8.77;5.38;;;;;;;18.46;85.51;101708.97;4970742;28;20093;-72
2023/05/21 07:19:11;;;;;;;7.28;5.45;;;;;;;18.52;84.95;101708.31;4954982;28;20518;-72
2023/05/21 07:21:38;;;;;;;8.88;6.05;;;;;;;18.56;85.01;101708.75;4957982;28;20058;-72
2023/05/21 07:24:08;;;;;;;9.50;5.65;;;;;;;18.64;84.06;101714.03;4964167;28;20051;-72
2023/05/21 07:26:34;;;;;;;9.48;5.95;;;;;;;18.70;83.00;101709.81;4938451;28;20090;-72
2023/05/21 07:29:01;;;;;;;10.88;6.32;;;;;;;18.74;84.77;101711.13;4949351;28;20046;-72
2023/05/21 07:31:27;;;;;;;8.25;5.18;;;;;;;18.77;83.60;101708.91;4938285;28;20055;-73
2023/05/21 07:33:54;;;;;;;9.40;5.28;;;;;;;18.88;82.83;101701.56;4965612;28;20050;-72
2023/05/21 07:36:21;;;;;;;7.80;5.65;;;;;;;18.92;84.86;101693.03;4961565;28;20276;-72
2023/05/21 07:38:47;;;;;;;8.35;6.18;;;;;;;18.99;82.60;101705.59;4965679;28;20050;-72
2023/05/21 07:41:14;;;;;;;9.15;6.20;;;;;;;19.01;83.21;101704.41;4950257;28;20051;-72
2023/05/21 07:43:43;;;;;;;11.68;6.10;;;;;;;19.10;82.66;101705.19;4939453;28;20043;-72
2023/05/21 07:46:10;;;;;;;8.57;6.60;;;;;;;19.14;81.36;101707.28;4950043;28;20094;-72
2023/05/21 07:48:37;;;;;;;9.00;6.00;;;;;;;19.24;80.46;101703.53;4960101;28;20051;-72
2023/05/21 07:51:04;;;;;;;10.20;6.60;;;;;;;19.26;81.85;101697.03;4965711;28;20498;-72
2023/05/21 07:53:32;;;;;;;8.25;5.55;;;;;;;19.36;81.83;101700.22;4964068;28;20514;-72
2023/05/21 07:55:59;;;;;;;10.75;6.63;;;;;;;19.39;80.87;101698.25;4960423;28;20051;-72
2023/05/21 07:58:25;;;;;;;9.75;5.78;;;;;;;19.45;80.59;101692.19;4961179;28;20055;-72
2023/05/21 08:00:52;;;;;;;9.38;6.20;;;;;;;19.54;80.48;101701.69;4968836;28;20058;-73
2023/05/21 08:03:19;;;;;;;12.00;6.45;;;;;;;19.59;81.27;101688.69;4949966;28;20704;-72
2023/05/21 08:05:49;;;;;;;7.70;5.23;;;;;;;19.67;79.10;101698.41;4914076;28;1881837;-73
2023/05/21 08:08:17;;;;;;;7.28;5.30;;;;;;;19.69;77.56;101689.22;4981255;28;20082;-72
2023/05/21 08:10:45;;;;;;;9.45;6.18;;;;;;;19.71;78.91;101681.91;4954472;28;20065;-72
2023/05/21 08:13:12;;;;;;;10.48;5.63;;;;;;;19.80;78.48;101684.44;4958601;28;20530;-73
2023/05/21 08:15:39;;;;;;;7.65;6.00;;;;;;;19.90;77.71;101687.66;4967301;28;20117;-71
2023/05/21 08:18:05;;;;;;;9.57;5.85;;;;;;;19.94;77.49;101680.94;4954491;28;20157;-71
2023/05/21 08:20:32;;;;;;;10.20;5.75;;;;;;;20.06;79.62;101678.63;4966000;28;20055;-71
2023/05/21 08:22:59;;;;;;;11.05;6.78;;;;;;;20.13;77.54;101676.84;4957987;28;20055;-71
2023/05/21 08:25:26;;;;;;;14.07;6.65;;;;;;;20.32;77.68;101678.88;4964466;28;20132;-71
2023/05/21 08:27:53;;;;;;;8.10;6.18;;;;;;;20.50;74.39;101681.13;4961994;28;20046;-71
2023/05/21 08:30:19;;;;;;;9.15;5.95;;;;;;;20.70;72.90;101677.84;4951674;28;20054;-71
2023/05/21 08:32:47;;;;;;;9.85;6.55;;;;;;;20.93;74.80;101680.25;4965864;28;20046;-72
2023/05/21 08:35:13;;;;;;;8.57;6.60;;;;;;;21.17;72.48;101692.31;4958400;28;20055;-72
2023/05/21 08:37:40;;;;;;;9.32;6.85;;;;;;;21.40;70.90;101681.34;4970313;28;20109;-71
2023/05/21 08:40:08;;;;;;;10.70;7.07;;;;;;;21.66;69.80;101680.72;4940917;28;20061;-72
2023/05/21 08:42:45;;;;;;;14.23;6.22;;;;;;;21.96;67.49;101685.75;4966556;28;20078;-72
2023/05/21 08:45:13;;;;;;;8.70;6.80;;;;;;;22.02;67.14;101673.44;4966963;28;20109;-72
2023/05/21 08:47:43;;;;;;;8.88;6.70;;;;;;;22.34;68.83;101684.41;4976041;28;20063;-72
2023/05/21 08:50:12;;;;;;;9.98;6.80;;;;;;;22.48;66.71;101684.22;4964208;28;20058;-72
2023/05/21 08:52:39;;;;;;;9.82;6.88;;;;;;;22.73;65.69;101677.44;4956797;28;20051;-72
2023/05/21 08:55:07;;;;;;;10.53;6.90;;;;;;;22.92;64.49;101681.13;4956911;28;20082;-72
2023/05/21 08:57:34;;;;;;;;;;;;;;;23.05;63.49;101683.81;4959732;28;20054;-72
2023/05/21 09:00:01;;;;;;;11.70;7.82;;;;;;;23.23;62.43;101675.97;4942753;29;20418;-72
2023/05/21 09:02:32;;;;;;;11.23;6.68;;;;;;;23.37;61.80;101668.72;4962373;28;20051;-72
2023/05/21 09:05:02;;;;;;;9.63;7.53;;;;;;;23.42;60.81;101678.78;4957488;28;20105;-72
2023/05/21 09:07:30;;;;;;;11.48;6.72;;;;;;;23.50;61.78;101675.84;4962346;28;20065;-72
2023/05/21 09:10:04;;;;;;;12.82;6.53;;;;;;;23.57;60.87;101670.50;4940214;28;20098;-72
2023/05/21 09:12:31;;;;;;;9.18;6.63;;;;;;;23.56;60.66;101669.69;4964841;28;20105;-72
2023/05/21 09:15:00;;;;;;;9.20;6.77;;;;;;;23.66;60.33;101669.22;4958748;28;20530;-72
2023/05/21 09:17:26;;;;;;;12.30;7.47;;;;;;;23.73;60.14;101672.69;4964289;28;20047;-72
2023/05/21 09:20:23;;;;;;;11.73;7.63;;;;;;;23.84;60.11;101669.38;4955810;28;20059;-72
2023/05/21 09:22:50;;;;;;;10.95;7.53;;;;;;;23.86;59.96;101663.78;4963994;28;20134;-72
2023/05/21 09:25:23;;;;;;;8.02;7.15;;;;;;;24.03;61.06;101658.72;4966694;28;20101;-72
2023/05/21 09:27:50;;;;;;;10.48;7.50;;;;;;;24.25;59.57;101660.03;4941815;28;20172;-72
2023/05/21 09:30:18;;;;;;;11.38;8.50;;;;;;;24.41;58.23;101658.69;4964972;28;20078;-72
2023/05/21 09:32:55;;;;;;;13.18;8.68;;;;;;;24.65;58.44;101658.94;4947934;28;20339;-72
2023/05/21 09:35:22;;;;;;;9.45;7.38;;;;;;;24.79;57.76;101655.06;4961228;28;20093;-72
2023/05/21 09:37:51;;;;;;;12.40;7.93;;;;;;;25.01;58.22;101657.34;4940369;28;20051;-73
2023/05/21 09:40:19;;;;;;;10.73;8.45;;;;;;;25.22;57.13;101653.44;4949376;28;20138;-71
2023/05/21 09:42:47;;;;;;;11.15;8.05;;;;;;;25.33;57.22;101651.88;4952652;28;20069;-73
2023/05/21 09:45:21;;;;;;;10.20;8.07;;;;;;;25.41;54.76;101648.88;4939357;28;20138;-73
2023/05/21 09:47:49;;;;;;;14.80;9.05;;;;;;;25.52;55.91;101652.66;4950415;28;20062;-73
2023/05/21 09:50:23;;;;;;;10.52;8.60;;;;;;;25.61;54.57;101645.94;4958096;28;20093;-73
2023/05/21 09:52:51;;;;;;;10.35;8.95;;;;;;;25.75;54.53;101643.91;4977381;28;20287;-73
2023/05/21 09:55:21;;;;;;;;;;;;;;;25.87;54.92;101649.31;4955148;28;20042;-73
2023/05/21 09:57:48;;;;;;;14.25;10.63;;;;;;;25.95;54.30;101644.47;4947298;28;19981;-73
2023/05/21 10:00:20;;;;;;;12.00;9.73;;;;;;;26.03;53.34;101649.53;4943916;28;20491;-73
2023/05/21 10:02:48;;;;;;;14.73;10.38;;;;;;;26.08;53.18;101638.06;4949862;28;20118;-73
2023/05/21 10:05:16;;;;;;;13.55;10.45;;;;;;;26.06;54.05;101642.84;4961722;28;20047;-73
2023/05/21 10:07:49;;;;;;;12.68;8.80;;;;;;;26.22;53.72;101638.69;4940116;28;20072;-73
2023/05/21 10:10:21;;;;;;;12.73;10.35;;;;;;;26.26;53.55;101636.34;4964866;28;20121;-73
2023/05/21 10:12:57;;;;;;;12.43;10.23;;;;;;;26.23;53.59;101632.28;4957644;28;20077;-73
2023/05/21 10:15:26;;;;;;;15.43;10.50;;;;;;;26.09;53.85;101638.88;4941676;28;20150;-71
2023/05/21 10:17:55;;;;;;;15.05;11.90;;;;;;;26.16;54.10;101639.59;4943421;28;20137;-72
2023/05/21 10:20:21;;;;;;;15.15;11.23;;;;;;;26.06;52.73;101631.28;4962384;28;20051;-72
2023/05/21 10:22:49;;;;;;;13.07;9.30;;;;;;;26.13;53.42;101640.06;4966194;28;20599;-73
2023/05/21 10:25:16;;;;;;;16.65;11.43;;;;;;;26.17;53.00;101635.88;4961301;28;20051;-72
2023/05/21 10:27:43;;;;;;;13.82;11.13;;;;;;;26.29;52.88;101634.03;4960324;28;20605;-72
2023/05/21 10:30:10;;;;;;;13.30;11.05;;;;;;;26.35;52.84;101622.34;4948084;28;20073;-72
2023/05/21 10:32:39;;;;;;;14.82;11.38;;;;;;;26.39;52.83;101628.06;4962063;28;20908;-73
2023/05/21 10:35:07;;;;;;;15.05;10.95;;;;;;;26.56;52.13;101625.50;4953923;28;20047;-73
2023/05/21 10:37:34;;;;;;;14.30;10.55;;;;;;;26.61;52.73;101628.34;4945476;28;20085;-72
2023/05/21 10:40:01;;;;;;;13.35;11.27;;;;;;;26.61;52.64;101621.09;4966980;28;20086;-73
2023/05/21 10:42:30;;;;;;;16.35;11.07;;;;;;;26.61;52.38;101621.09;4931517;28;20065;-72
2023/05/21 10:45:12;;;;;;;16.38;11.07;;;;;;;26.61;51.76;101617.59;4959685;28;20059;-73
2023/05/21 10:47:55;;;;;;;12.65;10.27;;;;;;;26.78;52.03;101615.00;4945214;28;20503;-73
2023/05/21 10:50:43;;;;;;;13.77;9.85;;;;;;;26.99;52.68;101614.41;4962921;28;20051;-74
2023/05/21 10:53:32;;;;;;;13.20;10.02;;;;;;;27.17;52.50;101607.22;4952415;28;20129;-74
2023/05/21 10:56:45;;;;;;;14.40;10.90;;;;;;;27.26;51.44;101616.56;4940475;28;20322;-73
2023/05/21 10:59:32;;;;;;;11.63;10.10;;;;;;;27.40;51.32;101611.72;4880562;29;20060;-73
2023/05/21 11:02:00;;;;;;;13.40;10.30;;;;;;;27.51;51.14;101610.84;4886311;29;20094;-75
2023/05/21 11:04:28;;;;;;;13.90;10.32;;;;;;;27.48;50.68;101613.22;4881858;29;20095;-74
2023/05/21 11:06:57;;;;;;;12.32;10.63;;;;;;;27.52;50.71;101609.81;4890810;29;20061;-72
2023/05/21 11:09:25;;;;;;;18.52;11.20;;;;;;;27.44;50.33;101610.19;4891827;29;20052;-74
2023/05/21 11:11:56;;;;;;;13.02;9.95;;;;;;;27.63;50.08;101604.63;4893678;29;20092;-72
2023/05/21 11:14:37;;;;;;;15.38;10.13;;;;;;;27.69;50.01;101599.06;4900396;29;20184;-73
2023/05/21 11:17:08;;;;;;;12.88;9.80;;;;;;;27.92;51.20;101600.03;4888069;29;20136;-73
2023/05/21 11:19:36;;;;;;;14.23;9.85;;;;;;;27.98;50.20;101596.34;4894516;29;20088;-73
2023/05/21 11:22:09;;;;;;;12.82;9.82;;;;;;;28.11;50.54;101597.91;4894796;29;20474;-73
2023/05/21 11:24:38;;;;;;;11.70;9.90;;;;;;;28.21;49.73;101584.59;4891178;29;20498;-73
2023/05/21 11:27:05;;;;;;;15.43;10.60;;;;;;;28.24;48.64;101576.00;4880421;29;20060;-73